LIT weather

Bill & Hillary Clinton National Airport/Adams Field
Little Rock, Arkansas, United States

Public forecast

Using degrees Fahrenheit for public forecast. Weather courtesy of forecast.io.

Current aviation weather report (METAR) for Bill & Hillary Clinton National Airport/Adams Field

Retrieved 2019/10/17 00:53 UTC (36 minutes ago):

KLIT 170053Z 25004KT 10SM BKN250 11/07 A3009 RMK AO2 SLP190 T01060072

Aviation forecast (TAF) for Bill & Hillary Clinton National Airport/Adams Field

Retrieved 2019-10-17 00:27 UTC (1 hour ago):

TAF KLIT 162320Z 1700/1724 VRB05KT P6SM SCT250